createdAt,value
2023-03-05T00:03:01.205Z,40.17
2023-03-05T00:08:04.569Z,36.97
2023-03-05T00:13:09.244Z,40.80
2023-03-05T00:18:13.334Z,45.70
2023-03-05T00:23:16.911Z,41.20
2023-03-05T00:28:21.731Z,41.53
2023-03-05T00:33:25.069Z,43.33
2023-03-05T00:38:28.462Z,38.53
2023-03-05T00:43:33.200Z,39.20
2023-03-05T00:48:36.611Z,43.37
2023-03-05T00:53:39.994Z,39.97
2023-03-05T00:58:44.735Z,45.77
2023-03-05T01:03:48.021Z,38.73
2023-03-05T01:08:51.319Z,44.27
2023-03-05T01:13:55.934Z,39.30
2023-03-05T01:18:59.273Z,44.63
2023-03-05T01:24:03.038Z,44.77
2023-03-05T01:29:07.978Z,43.57
2023-03-05T01:34:11.231Z,43.27
2023-03-05T01:39:14.890Z,43.03
2023-03-05T01:44:26.575Z,39.83
2023-03-05T01:49:32.013Z,34.40
2023-03-05T01:54:37.803Z,38.83
2023-03-05T01:59:45.043Z,36.47
2023-03-05T02:04:52.112Z,36.30
2023-03-05T02:09:55.542Z,39.63
2023-03-05T02:15:06.193Z,34.07
2023-03-05T02:20:14.121Z,40.47
2023-03-05T02:25:21.529Z,40.23
2023-03-05T02:30:26.485Z,43.37
2023-03-05T02:35:29.906Z,38.77
2023-03-05T02:40:34.690Z,38.73
2023-03-05T02:45:38.655Z,31.53
2023-03-05T02:50:43.183Z,36.13
2023-03-05T02:55:49.940Z,37.43
2023-03-05T03:00:53.257Z,48.40
2023-03-05T03:05:56.757Z,37.80
2023-03-05T03:11:08.066Z,35.57
2023-03-05T03:16:14.374Z,32.27
2023-03-05T03:21:22.393Z,36.07
2023-03-05T03:26:27.348Z,38.47
2023-03-05T03:31:30.784Z,39.20
2023-03-05T03:36:35.104Z,42.13
2023-03-05T03:41:42.667Z,44.73
2023-03-05T03:46:47.363Z,41.23
2023-03-05T03:51:52.564Z,33.03
2023-03-05T03:56:57.215Z,35.73
2023-03-05T04:02:00.483Z,35.10
2023-03-05T04:07:04.914Z,38.27
2023-03-05T04:12:10.406Z,42.67
2023-03-05T04:17:14.402Z,36.17
2023-03-05T04:22:19.499Z,42.43
2023-03-05T04:27:24.165Z,41.30
2023-03-05T04:32:29.855Z,38.20
2023-03-05T04:37:33.240Z,39.43
2023-03-05T04:42:38.337Z,36.43
2023-03-05T04:47:41.647Z,40.27
2023-03-05T04:52:47.207Z,43.07
2023-03-05T04:57:51.905Z,38.40
2023-03-05T05:02:55.380Z,46.27
2023-03-05T05:08:00.226Z,41.07
2023-03-05T05:13:04.982Z,37.83
2023-03-05T05:18:08.358Z,38.17
2023-03-05T05:23:11.681Z,39.77
2023-03-05T05:28:16.414Z,39.90
2023-03-05T05:33:19.753Z,44.23
2023-03-05T05:38:23.057Z,40.93
2023-03-05T05:43:28.437Z,41.07
2023-03-05T05:48:33.411Z,48.07
2023-03-05T05:53:36.762Z,36.93
2023-03-05T05:58:47.289Z,46.60
2023-03-05T06:03:50.726Z,37.60
2023-03-05T06:08:54.439Z,34.80
2023-03-05T06:13:59.241Z,40.47
2023-03-05T06:19:05.705Z,40.60
2023-03-05T06:24:09.499Z,44.23
2023-03-05T06:29:14.361Z,40.60
2023-03-05T06:34:17.687Z,38.13
2023-03-05T06:39:21.007Z,34.97
2023-03-05T06:44:25.862Z,36.03
2023-03-05T06:49:29.222Z,34.97
2023-03-05T06:54:32.513Z,36.07
2023-03-05T06:59:49.709Z,38.17
2023-03-05T07:04:55.748Z,34.57
2023-03-05T07:09:59.003Z,41.00
2023-03-05T07:15:06.599Z,36.30
2023-03-05T07:20:11.329Z,33.80
2023-03-05T07:25:19.436Z,40.60
2023-03-05T07:30:25.695Z,39.07
2023-03-05T07:35:29.044Z,36.40
2023-03-05T07:40:32.356Z,36.80
2023-03-05T07:45:40.545Z,35.00
2023-03-05T07:50:45.059Z,38.60
2023-03-05T07:55:48.737Z,34.87
2023-03-05T08:00:53.587Z,33.77
2023-03-05T08:05:57.015Z,30.13
2023-03-05T08:11:05.277Z,30.80
2023-03-05T08:16:13.854Z,40.50
2023-03-05T08:21:18.816Z,31.97
2023-03-05T08:26:25.785Z,29.53
2023-03-05T08:31:31.656Z,31.23
2023-03-05T08:36:44.108Z,31.33
2023-03-05T08:41:48.528Z,31.77
2023-03-05T08:46:53.408Z,34.67
2023-03-05T08:51:57.214Z,28.10
2023-03-05T08:57:01.733Z,25.30
2023-03-05T09:02:06.594Z,28.30
2023-03-05T09:07:11.067Z,28.45
2023-03-05T09:12:16.041Z,27.63
2023-03-05T09:17:20.840Z,28.15
2023-03-05T09:22:24.246Z,30.63
2023-03-05T09:27:29.727Z,25.30
2023-03-05T09:32:34.823Z,30.92
2023-03-05T09:37:38.296Z,29.58
2023-03-05T09:43:02.402Z,26.35
2023-03-05T09:48:16.760Z,29.17
2023-03-05T09:53:32.085Z,20.40
2023-03-05T09:58:39.456Z,24.08
2023-03-05T10:03:57.001Z,25.13
2023-03-05T10:09:08.655Z,23.50
2023-03-05T10:14:15.541Z,27.73
2023-03-05T10:19:33.177Z,22.88
2023-03-05T10:24:58.424Z,43.03
2023-03-05T10:30:09.372Z,26.98
2023-03-05T10:35:39.621Z,21.15
2023-03-05T10:40:47.747Z,19.83
2023-03-05T10:45:54.068Z,23.25
2023-03-05T10:51:04.079Z,19.80
2023-03-05T10:56:08.832Z,17.20
2023-03-05T11:01:23.920Z,20.13
2023-03-05T11:06:40.333Z,19.67
2023-03-05T11:11:43.763Z,19.02
2023-03-05T11:16:49.879Z,17.23
2023-03-05T11:22:17.299Z,20.92
2023-03-05T11:27:27.519Z,20.45
2023-03-05T11:32:31.773Z,22.67
2023-03-05T11:37:36.609Z,17.73
2023-03-05T11:42:41.679Z,20.75
2023-03-05T11:47:52.267Z,19.48
2023-03-05T11:53:00.100Z,19.35
2023-03-05T11:58:43.808Z,22.50
2023-03-05T12:03:47.810Z,19.67
2023-03-05T12:08:55.952Z,19.75
2023-03-05T12:14:05.100Z,15.20
2023-03-05T12:19:35.039Z,14.32
2023-03-05T12:24:41.057Z,14.82
2023-03-05T12:29:47.583Z,14.02
2023-03-05T12:34:57.314Z,14.90
2023-03-05T12:40:04.991Z,15.85
2023-03-05T12:45:29.793Z,16.02
2023-03-05T12:50:53.160Z,15.43
2023-03-05T12:56:04.099Z,15.68
2023-03-05T13:01:30.419Z,20.10
2023-03-05T13:06:36.806Z,17.52
2023-03-05T13:11:47.172Z,15.07
2023-03-05T13:16:50.678Z,16.10
2023-03-05T13:22:05.051Z,15.85
2023-03-05T13:27:25.770Z,16.95
2023-03-05T13:32:31.579Z,19.00
2023-03-05T13:37:36.946Z,26.40
2023-03-05T13:42:41.839Z,25.90
2023-03-05T13:47:54.325Z,27.25
2023-03-05T13:52:59.387Z,27.13
2023-03-05T13:58:05.372Z,17.60
2023-03-05T14:03:12.963Z,22.85
2023-03-05T14:08:23.500Z,25.17
2023-03-05T14:13:32.213Z,22.33
2023-03-05T14:18:36.257Z,18.45
2023-03-05T14:23:43.219Z,22.58
2023-03-05T14:28:52.601Z,24.85
2023-03-05T14:34:05.895Z,18.92
2023-03-05T14:39:22.202Z,26.25
2023-03-05T14:44:34.897Z,21.65
2023-03-05T14:49:41.673Z,21.20
2023-03-05T14:54:45.574Z,19.30
2023-03-05T14:59:54.753Z,26.23
2023-03-05T15:04:59.265Z,20.48
2023-03-05T15:10:07.889Z,20.25
2023-03-05T15:15:18.387Z,20.02
2023-03-05T15:20:25.374Z,17.50
2023-03-05T15:25:31.673Z,22.88
2023-03-05T15:30:42.817Z,20.67
2023-03-05T15:35:47.790Z,23.80
2023-03-05T15:40:53.295Z,18.67
2023-03-05T15:45:58.400Z,17.63
2023-03-05T15:51:03.586Z,17.42
2023-03-05T15:56:16.886Z,18.13
2023-03-05T16:01:23.795Z,16.60
2023-03-05T16:06:28.119Z,23.42
2023-03-05T16:11:33.780Z,18.45
2023-03-05T16:16:41.334Z,19.58
2023-03-05T16:21:44.778Z,19.58
2023-03-05T16:26:48.141Z,17.83
2023-03-05T16:31:55.133Z,17.23
2023-03-05T16:37:02.276Z,24.30
2023-03-05T16:42:06.176Z,25.37
2023-03-05T16:47:13.431Z,24.37
2023-03-05T16:52:19.750Z,24.60
2023-03-05T16:57:29.186Z,20.73
2023-03-05T17:02:36.973Z,25.15
2023-03-05T17:07:40.727Z,18.27
2023-03-05T17:12:47.537Z,23.55
2023-03-05T17:17:52.581Z,19.87
2023-03-05T17:22:56.974Z,18.40
2023-03-05T17:28:00.540Z,22.23
2023-03-05T17:33:06.121Z,24.63
2023-03-05T17:38:11.455Z,28.83
2023-03-05T17:43:25.069Z,21.13
2023-03-05T17:48:34.513Z,22.43
2023-03-05T17:53:39.507Z,20.90
2023-03-05T17:58:47.871Z,21.70
2023-03-05T18:03:52.726Z,31.87
2023-03-05T18:08:58.297Z,45.70
2023-03-05T18:14:01.990Z,53.00
2023-03-05T18:19:08.382Z,40.00
2023-03-05T18:24:15.726Z,41.53
2023-03-05T18:29:19.036Z,43.73
2023-03-05T18:34:25.821Z,34.33
2023-03-05T18:39:29.645Z,34.50
2023-03-05T18:44:33.511Z,37.20
2023-03-05T18:49:38.615Z,35.47
2023-03-05T18:54:41.918Z,28.67
2023-03-05T18:59:46.004Z,29.57
2023-03-05T19:04:50.854Z,26.23
2023-03-05T19:09:59.727Z,48.23
2023-03-05T19:15:04.462Z,37.50
2023-03-05T19:20:16.509Z,27.97
2023-03-05T19:25:20.086Z,52.40
2023-03-05T19:30:24.248Z,53.23
2023-03-05T19:35:29.525Z,36.40
2023-03-05T19:40:34.021Z,53.67
2023-03-05T19:45:37.556Z,29.83
2023-03-05T19:50:43.632Z,30.10
2023-03-05T19:55:47.305Z,27.57
2023-03-05T20:00:50.722Z,29.03
2023-03-05T20:05:55.676Z,26.33
2023-03-05T20:11:05.167Z,39.87
2023-03-05T20:16:17.103Z,37.20
2023-03-05T20:21:24.500Z,100.27
2023-03-05T20:26:28.515Z,29.67
2023-03-05T20:31:36.919Z,30.83
2023-03-05T20:36:42.320Z,32.97
2023-03-05T20:41:48.232Z,29.03
2023-03-05T20:47:02.934Z,33.70
2023-03-05T20:52:07.956Z,24.13
2023-03-05T20:57:11.423Z,28.63
2023-03-05T21:02:14.904Z,34.17
2023-03-05T21:07:20.067Z,32.47
2023-03-05T21:12:23.521Z,25.90
2023-03-05T21:17:27.563Z,27.30
2023-03-05T21:22:36.400Z,30.60
2023-03-05T21:27:39.754Z,31.87
2023-03-05T21:32:43.694Z,37.07
2023-03-05T21:37:50.164Z,34.97
2023-03-05T21:42:54.027Z,39.73
2023-03-05T21:47:58.891Z,32.80
2023-03-05T21:53:04.756Z,35.27
2023-03-05T21:58:08.012Z,33.83
2023-03-05T22:03:11.576Z,30.97
2023-03-05T22:08:18.655Z,29.97
2023-03-05T22:13:21.858Z,34.53
2023-03-05T22:18:27.410Z,31.37
2023-03-05T22:23:35.180Z,31.20
2023-03-05T22:28:38.990Z,29.13
2023-03-05T22:33:42.154Z,32.00
2023-03-05T22:38:47.409Z,32.37
2023-03-05T22:43:52.192Z,30.47
2023-03-05T22:48:55.606Z,37.33
2023-03-05T22:54:00.220Z,38.10
2023-03-05T22:59:03.453Z,38.63
2023-03-05T23:04:18.347Z,41.17
2023-03-05T23:09:23.608Z,40.43
2023-03-05T23:14:26.983Z,37.87
2023-03-05T23:19:30.498Z,36.70
2023-03-05T23:24:35.274Z,34.67
2023-03-05T23:29:54.452Z,32.47
2023-03-05T23:34:58.061Z,34.33
2023-03-05T23:40:03.767Z,27.67
2023-03-05T23:45:08.630Z,34.00
2023-03-05T23:50:15.204Z,31.83
2023-03-05T23:55:22.332Z,26.83
